createdAt,value
2023-09-04T00:00:46.329Z,56.08
2023-09-04T00:03:13.034Z,56.07
2023-09-04T00:05:39.741Z,56.24
2023-09-04T00:08:06.225Z,56.14
2023-09-04T00:10:32.584Z,56.11
2023-09-04T00:12:58.959Z,56.06
2023-09-04T00:15:25.328Z,55.84
2023-09-04T00:17:51.810Z,56.08
2023-09-04T00:20:18.174Z,55.96
2023-09-04T00:22:44.543Z,55.98
2023-09-04T00:25:10.909Z,56.07
2023-09-04T00:27:37.312Z,56.06
2023-09-04T00:30:03.824Z,56.05
2023-09-04T00:32:30.243Z,56.23
2023-09-04T00:34:56.727Z,56.13
2023-09-04T00:37:23.088Z,56.04
2023-09-04T00:39:49.465Z,56.31
2023-09-04T00:42:16.408Z,56.06
2023-09-04T00:44:45.663Z,56.08
2023-09-04T00:47:15.183Z,56.08
2023-09-04T00:49:42.562Z,56.04
2023-09-04T00:52:09.060Z,56.01
2023-09-04T00:54:36.118Z,55.97
2023-09-04T00:57:05.027Z,55.98
2023-09-04T00:59:31.447Z,55.88
2023-09-04T01:02:01.036Z,55.84
2023-09-04T01:04:27.522Z,55.89
2023-09-04T01:06:56.688Z,56.06
2023-09-04T01:09:23.052Z,56.06
2023-09-04T01:11:57.512Z,55.80
2023-09-04T01:14:23.887Z,55.76
2023-09-04T01:16:50.351Z,56.00
2023-09-04T01:19:18.570Z,55.92
2023-09-04T01:21:45.038Z,55.69
2023-09-04T01:24:11.407Z,55.92
2023-09-04T01:26:39.598Z,55.77
2023-09-04T01:29:17.620Z,55.93
2023-09-04T01:32:16.718Z,55.98
2023-09-04T01:34:43.374Z,56.00
2023-09-04T01:37:10.015Z,55.72
2023-09-04T01:39:37.337Z,55.83
2023-09-04T01:42:03.979Z,55.89
2023-09-04T01:44:30.404Z,55.68
2023-09-04T01:46:56.755Z,55.64
2023-09-04T01:49:23.108Z,55.68
2023-09-04T01:51:49.571Z,55.74
2023-09-04T01:54:15.941Z,55.53
2023-09-04T01:56:42.318Z,55.59
2023-09-04T01:59:08.884Z,55.48
2023-09-04T02:01:36.398Z,55.68
2023-09-04T02:04:02.850Z,55.70
2023-09-04T02:06:31.199Z,55.43
2023-09-04T02:08:57.734Z,55.31
2023-09-04T02:11:24.229Z,55.35
2023-09-04T02:13:50.630Z,55.19
2023-09-04T02:16:17.078Z,55.45
2023-09-04T02:18:44.228Z,55.31
2023-09-04T02:21:10.604Z,55.31
2023-09-04T02:23:36.993Z,54.71
2023-09-04T02:26:03.791Z,54.91
2023-09-04T02:28:30.532Z,55.03
2023-09-04T02:30:56.923Z,54.93
2023-09-04T02:33:23.284Z,54.98
2023-09-04T02:35:50.741Z,55.04
2023-09-04T02:38:19.046Z,55.17
2023-09-04T02:40:45.498Z,55.20
2023-09-04T02:43:11.863Z,55.26
2023-09-04T02:45:38.265Z,55.15
2023-09-04T02:48:04.797Z,55.21
2023-09-04T02:50:31.198Z,55.01
2023-09-04T02:52:57.552Z,55.38
2023-09-04T02:55:23.940Z,55.21
2023-09-04T02:57:50.710Z,55.17
2023-09-04T03:00:17.088Z,55.18
2023-09-04T03:02:43.620Z,55.30
2023-09-04T03:05:10.177Z,55.08
2023-09-04T03:07:37.369Z,55.26
2023-09-04T03:10:03.921Z,55.19
2023-09-04T03:12:31.139Z,55.28
2023-09-04T03:14:58.137Z,55.31
2023-09-04T03:17:25.852Z,55.03
2023-09-04T03:19:57.651Z,55.22
2023-09-04T03:22:24.289Z,55.03
2023-09-04T03:24:50.868Z,55.16
2023-09-04T03:27:17.775Z,55.19
2023-09-04T03:29:44.130Z,55.21
2023-09-04T03:32:10.538Z,55.14
2023-09-04T03:34:40.028Z,55.22
2023-09-04T03:37:06.493Z,55.30
2023-09-04T03:39:36.129Z,55.06
2023-09-04T03:42:02.905Z,55.23
2023-09-04T03:44:29.298Z,55.28
2023-09-04T03:46:55.673Z,55.07
2023-09-04T03:49:22.107Z,55.32
2023-09-04T03:51:48.477Z,55.28
2023-09-04T03:54:14.825Z,55.19
2023-09-04T03:56:41.222Z,55.08
2023-09-04T03:59:07.583Z,55.33
2023-09-04T04:01:34.323Z,55.12
2023-09-04T04:04:03.528Z,55.09
2023-09-04T04:06:30.010Z,55.01
2023-09-04T04:08:56.368Z,55.18
2023-09-04T04:11:22.797Z,55.09
2023-09-04T04:13:49.163Z,55.17
2023-09-04T04:16:15.531Z,55.08
2023-09-04T04:18:41.906Z,54.96
2023-09-04T04:21:08.789Z,55.05
2023-09-04T04:23:35.497Z,55.12
2023-09-04T04:26:01.864Z,55.04
2023-09-04T04:28:28.286Z,55.15
2023-09-04T04:30:54.706Z,54.92
2023-09-04T04:33:22.824Z,54.98
2023-09-04T04:35:52.191Z,54.91
2023-09-04T04:38:18.560Z,55.07
2023-09-04T04:40:44.932Z,54.90
2023-09-04T04:43:11.392Z,55.04
2023-09-04T04:45:37.786Z,54.80
2023-09-04T04:48:04.905Z,54.93
2023-09-04T04:50:31.459Z,54.73
2023-09-04T04:52:57.815Z,54.73
2023-09-04T04:55:24.173Z,54.84
2023-09-04T04:57:50.560Z,54.80
2023-09-04T05:00:17.780Z,54.91
2023-09-04T05:02:44.213Z,54.75
2023-09-04T05:05:11.935Z,54.91
2023-09-04T05:07:38.369Z,54.77
2023-09-04T05:10:04.898Z,54.76
2023-09-04T05:12:31.262Z,54.74
2023-09-04T05:14:57.623Z,54.75
2023-09-04T05:17:24.053Z,54.67
2023-09-04T05:19:50.520Z,54.64
2023-09-04T05:22:17.373Z,54.26
2023-09-04T05:24:44.269Z,54.33
2023-09-04T05:27:11.000Z,54.32
2023-09-04T05:29:37.408Z,54.20
2023-09-04T05:32:03.828Z,54.02
2023-09-04T05:34:30.178Z,53.83
2023-09-04T05:36:56.547Z,53.72
2023-09-04T05:39:22.900Z,53.81
2023-09-04T05:41:49.385Z,53.60
2023-09-04T05:44:15.834Z,53.74
2023-09-04T05:46:42.235Z,53.71
2023-09-04T05:49:08.650Z,53.62
2023-09-04T05:51:35.001Z,53.69
2023-09-04T05:54:01.360Z,53.49
2023-09-04T05:56:28.429Z,52.99
2023-09-04T05:58:54.799Z,53.60
2023-09-04T06:01:21.858Z,53.60
2023-09-04T06:03:48.573Z,53.81
2023-09-04T06:06:15.951Z,53.62
2023-09-04T06:08:42.338Z,53.78
2023-09-04T06:11:08.691Z,53.71
2023-09-04T06:13:35.057Z,53.81
2023-09-04T06:16:01.414Z,53.70
2023-09-04T06:18:31.041Z,53.46
2023-09-04T06:20:57.577Z,53.54
2023-09-04T06:23:24.543Z,53.42
2023-09-04T06:25:50.927Z,53.34
2023-09-04T06:28:17.390Z,53.27
2023-09-04T06:30:45.984Z,53.39
2023-09-04T06:33:12.544Z,53.08
2023-09-04T06:35:39.029Z,53.24
2023-09-04T06:38:05.372Z,52.82
2023-09-04T06:40:31.764Z,52.89
2023-09-04T06:42:58.276Z,52.78
2023-09-04T06:45:24.720Z,52.77
2023-09-04T06:47:51.644Z,52.72
2023-09-04T06:50:18.106Z,52.36
2023-09-04T06:52:44.548Z,52.39
2023-09-04T06:55:10.943Z,52.88
2023-09-04T06:57:37.350Z,52.83
2023-09-04T07:00:08.092Z,52.25
2023-09-04T07:02:34.551Z,51.88
2023-09-04T07:05:01.011Z,51.73
2023-09-04T07:07:30.171Z,51.71
2023-09-04T07:09:57.156Z,51.69
2023-09-04T07:12:23.526Z,51.37
2023-09-04T07:14:49.936Z,51.73
2023-09-04T07:17:16.416Z,51.79
2023-09-04T07:19:42.824Z,51.97
2023-09-04T07:22:09.209Z,51.86
2023-09-04T07:24:35.570Z,51.81
2023-09-04T07:27:01.962Z,51.58
2023-09-04T07:29:28.425Z,51.37
2023-09-04T07:31:57.097Z,51.41
2023-09-04T07:34:23.491Z,51.94
2023-09-04T07:36:49.906Z,51.72
2023-09-04T07:39:16.286Z,51.40
2023-09-04T07:41:42.644Z,51.70
2023-09-04T07:44:09.023Z,52.22
2023-09-04T07:46:35.457Z,51.79
2023-09-04T07:49:01.821Z,51.92
2023-09-04T07:51:34.832Z,51.55
2023-09-04T07:54:02.696Z,51.40
2023-09-04T07:56:36.219Z,51.71
2023-09-04T07:59:07.841Z,51.28
2023-09-04T08:01:34.272Z,51.81
2023-09-04T08:04:02.743Z,52.13
2023-09-04T08:06:29.313Z,51.65
2023-09-04T08:08:55.750Z,51.66
2023-09-04T08:11:22.128Z,51.59
2023-09-04T08:13:48.483Z,51.95
2023-09-04T08:16:14.885Z,51.82
2023-09-04T08:18:41.275Z,51.67
2023-09-04T08:21:07.706Z,51.77
2023-09-04T08:23:34.091Z,51.75
2023-09-04T08:26:00.698Z,51.69
2023-09-04T08:28:27.220Z,51.71
2023-09-04T08:30:53.652Z,51.40
2023-09-04T08:33:21.975Z,51.48
2023-09-04T08:35:49.715Z,50.96
2023-09-04T08:38:16.067Z,51.19
2023-09-04T08:40:42.743Z,50.46
2023-09-04T08:43:09.127Z,50.21
2023-09-04T08:45:36.477Z,50.65
2023-09-04T08:48:03.472Z,50.32
2023-09-04T08:50:30.594Z,50.21
2023-09-04T08:52:57.004Z,50.79
2023-09-04T08:55:23.372Z,50.68
2023-09-04T08:57:49.814Z,50.93
2023-09-04T09:00:17.116Z,51.18
2023-09-04T09:02:44.414Z,51.18
2023-09-04T09:05:11.502Z,50.88
2023-09-04T09:07:37.878Z,50.92
2023-09-04T09:10:05.321Z,50.67
2023-09-04T09:12:31.692Z,50.87
2023-09-04T09:15:01.050Z,50.19
2023-09-04T09:17:27.523Z,50.71
2023-09-04T09:19:53.953Z,50.30
2023-09-04T09:22:20.964Z,50.57
2023-09-04T09:25:04.592Z,50.41
2023-09-04T09:27:31.861Z,50.12
2023-09-04T09:29:58.817Z,50.49
2023-09-04T09:32:27.495Z,50.23
2023-09-04T09:34:54.524Z,50.34
2023-09-04T09:37:24.761Z,49.77
2023-09-04T09:39:51.172Z,49.75
2023-09-04T09:42:17.745Z,49.77
2023-09-04T09:44:44.141Z,49.60
2023-09-04T09:47:13.804Z,49.67
2023-09-04T09:49:43.338Z,50.61
2023-09-04T09:52:10.116Z,49.82
2023-09-04T09:54:37.163Z,49.37
2023-09-04T09:57:08.817Z,49.47
2023-09-04T09:59:36.167Z,49.68
2023-09-04T10:02:03.211Z,49.25
2023-09-04T10:04:30.647Z,49.18
2023-09-04T10:06:57.007Z,49.72
2023-09-04T10:09:24.039Z,49.18
2023-09-04T10:11:54.600Z,49.05
2023-09-04T10:14:33.938Z,49.08
2023-09-04T10:17:01.614Z,49.25
2023-09-04T10:19:31.486Z,49.43
2023-09-04T10:22:09.615Z,48.62
2023-09-04T10:24:39.548Z,48.56
2023-09-04T10:27:06.541Z,48.39
2023-09-04T10:29:32.890Z,49.08
2023-09-04T10:31:59.253Z,48.72
2023-09-04T10:34:25.855Z,48.41
2023-09-04T10:36:52.245Z,48.73
2023-09-04T10:39:21.094Z,48.74
2023-09-04T10:41:47.604Z,48.34
2023-09-04T10:44:33.909Z,48.23
2023-09-04T10:47:00.309Z,47.92
2023-09-04T10:49:30.888Z,47.84
2023-09-04T10:51:57.266Z,48.04
2023-09-04T10:54:26.504Z,48.11
2023-09-04T10:56:56.466Z,48.15
2023-09-04T10:59:22.940Z,48.27
2023-09-04T11:01:49.355Z,48.16
2023-09-04T11:04:32.676Z,48.45
2023-09-04T11:07:19.253Z,49.02
2023-09-04T11:09:45.658Z,48.42
2023-09-04T11:12:21.189Z,48.21
2023-09-04T11:14:56.711Z,48.49
2023-09-04T11:17:23.658Z,48.87
2023-09-04T11:19:51.302Z,47.89
2023-09-04T11:22:20.928Z,48.70
2023-09-04T11:24:47.328Z,47.86
2023-09-04T11:27:13.674Z,47.58
2023-09-04T11:29:40.049Z,47.67
2023-09-04T11:32:08.701Z,47.51
2023-09-04T11:34:35.208Z,47.88
2023-09-04T11:37:01.596Z,47.70
2023-09-04T11:39:28.037Z,47.38
2023-09-04T11:41:54.404Z,47.70
2023-09-04T11:44:20.761Z,47.30
2023-09-04T11:46:47.275Z,47.82
2023-09-04T11:49:13.626Z,48.11
2023-09-04T11:51:40.082Z,47.54
2023-09-04T11:54:07.002Z,47.66
2023-09-04T11:56:33.584Z,47.83
2023-09-04T11:58:59.939Z,48.52
2023-09-04T12:01:26.486Z,48.72
2023-09-04T12:03:54.392Z,48.99
2023-09-04T12:06:24.779Z,49.13
2023-09-04T12:08:51.138Z,48.76
2023-09-04T12:11:17.536Z,49.19
2023-09-04T12:13:43.896Z,49.21
2023-09-04T12:16:11.355Z,49.47
2023-09-04T12:18:38.253Z,50.05
2023-09-04T12:21:10.264Z,50.03
2023-09-04T12:23:38.198Z,49.89
2023-09-04T12:26:05.182Z,49.92
2023-09-04T12:28:31.746Z,49.48
2023-09-04T12:30:58.499Z,49.42
2023-09-04T12:33:27.661Z,49.48
2023-09-04T12:36:00.110Z,49.42
2023-09-04T12:38:26.505Z,49.20
2023-09-04T12:40:52.903Z,49.44
2023-09-04T12:43:19.262Z,49.42
2023-09-04T12:45:45.806Z,49.24
2023-09-04T12:48:15.551Z,48.90
2023-09-04T12:50:41.944Z,49.06
2023-09-04T12:53:08.299Z,48.71
2023-09-04T12:55:34.663Z,49.42
2023-09-04T12:58:01.314Z,49.23
2023-09-04T13:00:28.594Z,49.72
2023-09-04T13:02:55.406Z,49.99
2023-09-04T13:05:21.938Z,49.52
2023-09-04T13:07:48.370Z,49.72
2023-09-04T13:10:15.003Z,49.53
2023-09-04T13:12:41.358Z,49.50
2023-09-04T13:15:08.135Z,49.55
2023-09-04T13:17:34.596Z,50.04
2023-09-04T13:20:01.282Z,50.07
2023-09-04T13:22:27.631Z,49.71
2023-09-04T13:24:54.014Z,49.46
2023-09-04T13:27:21.848Z,49.83
2023-09-04T13:29:48.258Z,50.08
2023-09-04T13:32:14.612Z,49.83
2023-09-04T13:34:42.319Z,50.04
2023-09-04T13:37:08.705Z,49.83
2023-09-04T13:39:35.150Z,49.89
2023-09-04T13:42:01.576Z,50.48
2023-09-04T13:44:28.017Z,50.47
2023-09-04T13:46:54.515Z,51.04
2023-09-04T13:49:21.181Z,50.76
2023-09-04T13:51:47.576Z,50.77
2023-09-04T13:54:13.948Z,51.00
2023-09-04T13:56:41.385Z,51.19
2023-09-04T13:59:07.903Z,50.95
2023-09-04T14:01:34.382Z,51.15
2023-09-04T14:04:00.981Z,51.13
2023-09-04T14:06:27.386Z,51.00
2023-09-04T14:08:53.785Z,51.42
2023-09-04T14:11:20.165Z,51.59
2023-09-04T14:13:46.524Z,51.59
2023-09-04T14:16:13.198Z,51.28
2023-09-04T14:18:39.617Z,51.16
2023-09-04T14:21:06.681Z,51.36
2023-09-04T14:23:33.109Z,51.53
2023-09-04T14:25:59.536Z,51.69
2023-09-04T14:28:25.894Z,51.64
2023-09-04T14:30:52.781Z,52.08
2023-09-04T14:33:19.175Z,52.09
2023-09-04T14:35:45.569Z,51.85
2023-09-04T14:38:12.025Z,51.67
2023-09-04T14:40:45.439Z,52.17
2023-09-04T14:43:14.497Z,52.52
2023-09-04T14:45:41.205Z,52.24
2023-09-04T14:48:07.730Z,51.90
2023-09-04T14:50:34.224Z,51.47
2023-09-04T14:53:00.668Z,52.14
2023-09-04T14:55:27.014Z,52.26
2023-09-04T14:57:53.725Z,52.21
2023-09-04T15:00:20.414Z,52.18
2023-09-04T15:02:47.009Z,52.28
2023-09-04T15:05:13.421Z,52.31
2023-09-04T15:07:39.818Z,52.43
2023-09-04T15:10:06.271Z,53.03
2023-09-04T15:12:32.649Z,53.19
2023-09-04T15:14:59.008Z,52.41
2023-09-04T15:17:25.421Z,51.51
2023-09-04T15:19:52.747Z,51.39
2023-09-04T15:22:19.157Z,51.59
2023-09-04T15:24:45.782Z,51.65
2023-09-04T15:27:12.230Z,52.39
2023-09-04T15:29:38.590Z,52.42
2023-09-04T15:32:05.321Z,52.14
2023-09-04T15:34:31.729Z,52.29
2023-09-04T15:36:58.131Z,52.00
2023-09-04T15:39:24.500Z,51.99
2023-09-04T15:41:50.941Z,52.02
2023-09-04T15:44:17.429Z,52.11
2023-09-04T15:46:46.522Z,52.23
2023-09-04T15:49:13.041Z,52.36
2023-09-04T15:51:39.451Z,52.69
2023-09-04T15:54:05.870Z,52.49
2023-09-04T15:56:32.252Z,52.74
2023-09-04T15:58:58.640Z,52.41
2023-09-04T16:01:25.001Z,52.53
2023-09-04T16:03:51.420Z,52.79
2023-09-04T16:06:17.817Z,52.90
2023-09-04T16:08:44.176Z,53.00
2023-09-04T16:11:12.491Z,52.99
2023-09-04T16:13:38.853Z,52.94
2023-09-04T16:16:05.311Z,52.85
2023-09-04T16:18:31.857Z,53.05
2023-09-04T16:20:58.781Z,52.89
2023-09-04T16:23:25.350Z,52.85
2023-09-04T16:25:54.825Z,52.85
2023-09-04T16:28:23.828Z,53.00
2023-09-04T16:30:53.677Z,53.26
2023-09-04T16:33:21.648Z,53.29
2023-09-04T16:35:48.191Z,53.03
2023-09-04T16:38:14.547Z,53.18
2023-09-04T16:40:41.754Z,53.40
2023-09-04T16:43:08.453Z,53.03
2023-09-04T16:45:36.166Z,53.50
2023-09-04T16:48:03.121Z,53.31
2023-09-04T16:50:29.650Z,53.60
2023-09-04T16:52:56.275Z,53.38
2023-09-04T16:55:22.634Z,53.24
2023-09-04T16:57:49.000Z,53.29
2023-09-04T17:00:15.528Z,53.40
2023-09-04T17:02:41.959Z,53.50
2023-09-04T17:05:08.429Z,53.84
2023-09-04T17:07:34.894Z,53.59
2023-09-04T17:10:01.306Z,53.59
2023-09-04T17:12:29.822Z,53.74
2023-09-04T17:14:56.189Z,53.46
2023-09-04T17:17:22.575Z,53.75
2023-09-04T17:19:48.967Z,53.42
2023-09-04T17:22:15.382Z,53.70
2023-09-04T17:24:41.756Z,53.55
2023-09-04T17:27:11.021Z,53.54
2023-09-04T17:29:38.203Z,53.48
2023-09-04T17:32:05.594Z,53.75
2023-09-04T17:34:32.044Z,53.80
2023-09-04T17:36:58.478Z,53.63
2023-09-04T17:39:28.800Z,53.83
2023-09-04T17:41:55.302Z,53.77
2023-09-04T17:44:22.266Z,53.75
2023-09-04T17:46:48.626Z,53.73
2023-09-04T17:49:15.238Z,53.52
2023-09-04T17:51:41.622Z,53.83
2023-09-04T17:54:07.979Z,53.93
2023-09-04T17:56:34.370Z,54.07
2023-09-04T17:59:00.732Z,54.02
2023-09-04T18:01:29.678Z,54.11
2023-09-04T18:03:56.477Z,53.95
2023-09-04T18:06:23.044Z,54.17
2023-09-04T18:08:49.505Z,54.13
2023-09-04T18:11:15.966Z,54.05
2023-09-04T18:13:42.353Z,53.89
2023-09-04T18:16:08.792Z,54.17
2023-09-04T18:18:41.041Z,54.03
2023-09-04T18:21:08.029Z,53.96
2023-09-04T18:23:34.936Z,54.15
2023-09-04T18:26:01.419Z,54.29
2023-09-04T18:28:28.028Z,54.28
2023-09-04T18:30:54.811Z,54.26
2023-09-04T18:33:21.248Z,54.25
2023-09-04T18:35:47.824Z,54.09
2023-09-04T18:38:14.514Z,54.52
2023-09-04T18:40:40.869Z,54.70
2023-09-04T18:43:07.231Z,54.69
2023-09-04T18:45:33.610Z,54.36
2023-09-04T18:48:00.017Z,54.35
2023-09-04T18:50:26.462Z,54.23
2023-09-04T18:52:52.846Z,54.57
2023-09-04T18:55:19.412Z,54.26
2023-09-04T18:57:45.764Z,54.43
2023-09-04T19:00:13.224Z,54.47
2023-09-04T19:02:39.731Z,54.39
2023-09-04T19:05:07.869Z,54.54
2023-09-04T19:07:34.324Z,54.61
2023-09-04T19:10:00.691Z,54.76
2023-09-04T19:12:27.102Z,54.50
2023-09-04T19:14:53.506Z,54.49
2023-09-04T19:17:19.886Z,54.75
2023-09-04T19:19:46.372Z,54.85
2023-09-04T19:22:12.749Z,54.59
2023-09-04T19:24:40.468Z,54.83
2023-09-04T19:27:06.834Z,54.86
2023-09-04T19:29:33.311Z,54.78
2023-09-04T19:32:00.081Z,54.80
2023-09-04T19:34:26.689Z,54.71
2023-09-04T19:36:53.084Z,54.78
2023-09-04T19:39:19.441Z,54.57
2023-09-04T19:41:45.793Z,54.45
2023-09-04T19:44:12.204Z,54.58
2023-09-04T19:46:38.546Z,54.81
2023-09-04T19:49:04.894Z,54.40
2023-09-04T19:51:31.272Z,54.41
2023-09-04T19:53:57.668Z,54.69
2023-09-04T19:56:24.392Z,54.53
2023-09-04T19:58:50.736Z,54.63
2023-09-04T20:01:17.180Z,54.42
2023-09-04T20:03:43.745Z,54.64
2023-09-04T20:06:13.458Z,54.44
2023-09-04T20:08:41.332Z,54.46
2023-09-04T20:11:07.681Z,54.33
2023-09-04T20:13:34.037Z,54.57
2023-09-04T20:16:00.706Z,54.47
2023-09-04T20:18:27.353Z,54.64
2023-09-04T20:20:55.665Z,54.60
2023-09-04T20:23:22.041Z,54.33
2023-09-04T20:25:48.452Z,54.38
2023-09-04T20:28:14.807Z,54.31
2023-09-04T20:30:48.332Z,54.52
2023-09-04T20:33:14.709Z,54.26
2023-09-04T20:35:41.061Z,54.58
2023-09-04T20:38:07.435Z,54.31
2023-09-04T20:40:33.863Z,54.34
2023-09-04T20:43:00.238Z,54.53
2023-09-04T20:45:26.842Z,54.55
2023-09-04T20:47:53.615Z,54.51
2023-09-04T20:50:20.083Z,54.54
2023-09-04T20:52:47.698Z,54.61
2023-09-04T20:55:14.166Z,54.21
2023-09-04T20:57:40.526Z,54.47
2023-09-04T21:00:07.454Z,54.38
2023-09-04T21:02:33.955Z,54.29
2023-09-04T21:05:00.440Z,54.33
2023-09-04T21:07:26.768Z,54.58
2023-09-04T21:09:53.111Z,54.47
2023-09-04T21:12:39.406Z,54.24
2023-09-04T21:15:24.466Z,54.53
2023-09-04T21:18:09.363Z,54.46
2023-09-04T21:20:54.181Z,54.36
2023-09-04T21:23:39.068Z,54.30
2023-09-04T21:26:24.178Z,54.53
2023-09-04T21:29:09.103Z,54.27
2023-09-04T21:31:54.100Z,54.38
2023-09-04T21:34:39.022Z,54.40
2023-09-04T21:37:23.966Z,54.29
2023-09-04T21:40:08.853Z,54.52
2023-09-04T21:42:53.876Z,54.56
2023-09-04T21:45:39.034Z,54.24
2023-09-04T21:48:24.176Z,54.37
2023-09-04T21:51:09.133Z,54.24
2023-09-04T21:53:54.086Z,54.20
2023-09-04T21:56:38.937Z,54.53
2023-09-04T21:59:23.857Z,54.41
2023-09-04T22:02:08.672Z,54.33
2023-09-04T22:04:53.515Z,54.30
2023-09-04T22:07:38.243Z,54.37
2023-09-04T22:10:23.310Z,54.38
2023-09-04T22:13:08.227Z,54.20
2023-09-04T22:15:53.137Z,54.44
2023-09-04T22:18:38.939Z,54.34
2023-09-04T22:21:24.031Z,54.33
2023-09-04T22:24:09.380Z,54.31
2023-09-04T22:26:54.062Z,54.25
2023-09-04T22:29:39.128Z,54.35
2023-09-04T22:32:23.863Z,54.17
2023-09-04T22:35:08.721Z,54.18
2023-09-04T22:37:53.585Z,54.22
2023-09-04T22:40:38.913Z,54.29
2023-09-04T22:43:24.214Z,54.29
2023-09-04T22:46:09.387Z,54.06
2023-09-04T22:48:54.160Z,54.12
2023-09-04T22:51:39.011Z,54.21
2023-09-04T22:54:24.306Z,54.23
2023-09-04T22:57:09.323Z,54.23
2023-09-04T22:59:54.419Z,54.15
2023-09-04T23:02:39.372Z,54.08
2023-09-04T23:05:24.840Z,54.21
2023-09-04T23:08:10.252Z,54.13
2023-09-04T23:10:55.289Z,54.09
2023-09-04T23:13:40.064Z,53.95
2023-09-04T23:16:24.901Z,53.95
2023-09-04T23:19:09.877Z,54.25
2023-09-04T23:21:39.774Z,54.06
2023-09-04T23:24:08.767Z,53.92
2023-09-04T23:26:51.493Z,54.04
2023-09-04T23:29:20.476Z,53.78
2023-09-04T23:31:48.932Z,54.09
2023-09-04T23:34:15.709Z,54.15
2023-09-04T23:37:00.780Z,53.85
2023-09-04T23:39:33.036Z,54.05
2023-09-04T23:42:18.927Z,53.85
2023-09-04T23:45:03.878Z,53.92
2023-09-04T23:47:30.649Z,54.04
2023-09-04T23:49:59.579Z,54.09
2023-09-04T23:52:28.611Z,54.00
2023-09-04T23:54:56.151Z,54.15
2023-09-04T23:57:22.496Z,53.99
2023-09-04T23:59:49.088Z,54.06
